sensor_id;sensor_type;location;lat;lon;timestamp;P1;durP1;ratioP1;P2;durP2;ratioP2
11651;SDS011;5882;48.818;9.114;2022-07-29T00:00:47;3.00;;;2.80;;
11651;SDS011;5882;48.818;9.114;2022-07-29T00:03:13;4.25;;;3.00;;
11651;SDS011;5882;48.818;9.114;2022-07-29T00:05:41;2.75;;;2.55;;
11651;SDS011;5882;48.818;9.114;2022-07-29T00:08:08;2.72;;;2.53;;
11651;SDS011;5882;48.818;9.114;2022-07-29T00:10:35;3.03;;;2.75;;
11651;SDS011;5882;48.818;9.114;2022-07-29T00:13:01;3.15;;;2.95;;
11651;SDS011;5882;48.818;9.114;2022-07-29T00:15:28;2.47;;;2.28;;
11651;SDS011;5882;48.818;9.114;2022-07-29T00:17:55;2.97;;;2.78;;
11651;SDS011;5882;48.818;9.114;2022-07-29T00:20:21;2.92;;;2.72;;
11651;SDS011;5882;48.818;9.114;2022-07-29T00:22:49;3.35;;;3.05;;
11651;SDS011;5882;48.818;9.114;2022-07-29T00:25:16;3.45;;;2.80;;
11651;SDS011;5882;48.818;9.114;2022-07-29T00:27:42;2.60;;;2.40;;
11651;SDS011;5882;48.818;9.114;2022-07-29T00:30:11;3.00;;;2.70;;
11651;SDS011;5882;48.818;9.114;2022-07-29T00:32:37;3.03;;;2.72;;
11651;SDS011;5882;48.818;9.114;2022-07-29T00:35:04;3.13;;;2.92;;
11651;SDS011;5882;48.818;9.114;2022-07-29T00:37:50;3.00;;;2.80;;
11651;SDS011;5882;48.818;9.114;2022-07-29T00:40:16;2.70;;;2.50;;
11651;SDS011;5882;48.818;9.114;2022-07-29T00:42:43;3.00;;;2.80;;
11651;SDS011;5882;48.818;9.114;2022-07-29T00:45:10;2.83;;;2.63;;
11651;SDS011;5882;48.818;9.114;2022-07-29T00:47:36;2.80;;;2.60;;
11651;SDS011;5882;48.818;9.114;2022-07-29T00:50:04;2.97;;;2.78;;
11651;SDS011;5882;48.818;9.114;2022-07-29T00:52:30;2.85;;;2.65;;
11651;SDS011;5882;48.818;9.114;2022-07-29T00:54:58;3.00;;;2.75;;
11651;SDS011;5882;48.818;9.114;2022-07-29T00:57:25;2.55;;;2.35;;
11651;SDS011;5882;48.818;9.114;2022-07-29T00:59:51;2.70;;;2.50;;
11651;SDS011;5882;48.818;9.114;2022-07-29T01:02:18;2.72;;;2.53;;
11651;SDS011;5882;48.818;9.114;2022-07-29T01:04:44;3.05;;;2.67;;
11651;SDS011;5882;48.818;9.114;2022-07-29T01:07:11;3.40;;;3.10;;
11651;SDS011;5882;48.818;9.114;2022-07-29T01:09:37;2.85;;;2.65;;
11651;SDS011;5882;48.818;9.114;2022-07-29T01:12:06;3.00;;;2.80;;
11651;SDS011;5882;48.818;9.114;2022-07-29T01:14:33;2.63;;;2.42;;
11651;SDS011;5882;48.818;9.114;2022-07-29T01:17:02;2.70;;;2.50;;
11651;SDS011;5882;48.818;9.114;2022-07-29T01:19:33;2.65;;;2.45;;
11651;SDS011;5882;48.818;9.114;2022-07-29T01:22:07;2.47;;;2.28;;
11651;SDS011;5882;48.818;9.114;2022-07-29T01:24:39;4.57;;;2.80;;
11651;SDS011;5882;48.818;9.114;2022-07-29T01:27:19;2.60;;;2.40;;
11651;SDS011;5882;48.818;9.114;2022-07-29T01:29:51;2.60;;;2.40;;
11651;SDS011;5882;48.818;9.114;2022-07-29T01:32:21;2.60;;;2.40;;
11651;SDS011;5882;48.818;9.114;2022-07-29T01:34:49;2.10;;;2.00;;
11651;SDS011;5882;48.818;9.114;2022-07-29T01:37:18;2.40;;;2.20;;
11651;SDS011;5882;48.818;9.114;2022-07-29T01:39:45;2.50;;;2.30;;
11651;SDS011;5882;48.818;9.114;2022-07-29T01:42:14;2.67;;;2.47;;
11651;SDS011;5882;48.818;9.114;2022-07-29T01:44:43;2.35;;;2.15;;
11651;SDS011;5882;48.818;9.114;2022-07-29T01:47:14;2.50;;;2.22;;
11651;SDS011;5882;48.818;9.114;2022-07-29T01:49:48;2.13;;;1.95;;
11651;SDS011;5882;48.818;9.114;2022-07-29T01:52:20;2.08;;;1.98;;
11651;SDS011;5882;48.818;9.114;2022-07-29T01:54:48;2.33;;;2.15;;
11651;SDS011;5882;48.818;9.114;2022-07-29T01:57:16;2.10;;;2.00;;
11651;SDS011;5882;48.818;9.114;2022-07-29T01:59:45;2.42;;;2.22;;
11651;SDS011;5882;48.818;9.114;2022-07-29T02:02:14;2.20;;;2.05;;
11651;SDS011;5882;48.818;9.114;2022-07-29T02:04:41;2.17;;;2.08;;
11651;SDS011;5882;48.818;9.114;2022-07-29T02:07:10;2.00;;;1.90;;
11651;SDS011;5882;48.818;9.114;2022-07-29T02:09:37;2.20;;;2.10;;
11651;SDS011;5882;48.818;9.114;2022-07-29T02:12:05;2.38;;;2.17;;
11651;SDS011;5882;48.818;9.114;2022-07-29T02:14:33;2.05;;;1.95;;
11651;SDS011;5882;48.818;9.114;2022-07-29T02:17:00;2.08;;;1.98;;
11651;SDS011;5882;48.818;9.114;2022-07-29T02:19:29;2.00;;;1.90;;
11651;SDS011;5882;48.818;9.114;2022-07-29T02:21:57;2.58;;;1.70;;
11651;SDS011;5882;48.818;9.114;2022-07-29T02:24:24;2.17;;;1.88;;
11651;SDS011;5882;48.818;9.114;2022-07-29T02:26:55;2.50;;;2.30;;
11651;SDS011;5882;48.818;9.114;2022-07-29T02:29:23;2.15;;;2.05;;
11651;SDS011;5882;48.818;9.114;2022-07-29T02:31:51;2.03;;;1.92;;
11651;SDS011;5882;48.818;9.114;2022-07-29T02:34:18;2.50;;;2.08;;
11651;SDS011;5882;48.818;9.114;2022-07-29T02:36:47;2.70;;;2.50;;
11651;SDS011;5882;48.818;9.114;2022-07-29T02:39:14;2.20;;;2.10;;
11651;SDS011;5882;48.818;9.114;2022-07-29T02:41:42;2.47;;;2.28;;
11651;SDS011;5882;48.818;9.114;2022-07-29T02:44:09;2.25;;;2.05;;
11651;SDS011;5882;48.818;9.114;2022-07-29T02:46:36;1.90;;;1.80;;
11651;SDS011;5882;48.818;9.114;2022-07-29T02:49:06;2.03;;;1.85;;
11651;SDS011;5882;48.818;9.114;2022-07-29T02:51:36;2.40;;;2.20;;
11651;SDS011;5882;48.818;9.114;2022-07-29T02:54:07;2.20;;;2.10;;
11651;SDS011;5882;48.818;9.114;2022-07-29T02:56:35;2.15;;;2.05;;
11651;SDS011;5882;48.818;9.114;2022-07-29T02:59:03;2.92;;;2.08;;
11651;SDS011;5882;48.818;9.114;2022-07-29T03:01:32;2.65;;;2.45;;
11651;SDS011;5882;48.818;9.114;2022-07-29T03:04:00;2.50;;;2.30;;
11651;SDS011;5882;48.818;9.114;2022-07-29T03:06:27;2.00;;;1.90;;
11651;SDS011;5882;48.818;9.114;2022-07-29T03:08:57;2.70;;;2.50;;
11651;SDS011;5882;48.818;9.114;2022-07-29T03:11:26;2.60;;;2.30;;
11651;SDS011;5882;48.818;9.114;2022-07-29T03:13:53;2.10;;;2.00;;
11651;SDS011;5882;48.818;9.114;2022-07-29T03:16:20;3.22;;;2.20;;
11651;SDS011;5882;48.818;9.114;2022-07-29T03:18:48;2.05;;;1.95;;
11651;SDS011;5882;48.818;9.114;2022-07-29T03:21:16;2.15;;;1.95;;
11651;SDS011;5882;48.818;9.114;2022-07-29T03:23:43;2.40;;;2.20;;
11651;SDS011;5882;48.818;9.114;2022-07-29T03:26:10;2.30;;;2.10;;
11651;SDS011;5882;48.818;9.114;2022-07-29T03:28:38;2.30;;;2.20;;
11651;SDS011;5882;48.818;9.114;2022-07-29T03:31:04;2.30;;;2.15;;
11651;SDS011;5882;48.818;9.114;2022-07-29T03:33:31;4.35;;;2.67;;
11651;SDS011;5882;48.818;9.114;2022-07-29T03:35:57;2.03;;;1.92;;
11651;SDS011;5882;48.818;9.114;2022-07-29T03:38:25;2.38;;;1.98;;
11651;SDS011;5882;48.818;9.114;2022-07-29T03:40:56;2.33;;;2.13;;
11651;SDS011;5882;48.818;9.114;2022-07-29T03:43:23;2.10;;;2.00;;
11651;SDS011;5882;48.818;9.114;2022-07-29T03:45:52;2.28;;;2.10;;
11651;SDS011;5882;48.818;9.114;2022-07-29T03:48:20;2.28;;;2.17;;
11651;SDS011;5882;48.818;9.114;2022-07-29T03:50:48;2.10;;;2.00;;
11651;SDS011;5882;48.818;9.114;2022-07-29T03:53:15;2.70;;;2.50;;
11651;SDS011;5882;48.818;9.114;2022-07-29T03:55:43;1.98;;;1.88;;
11651;SDS011;5882;48.818;9.114;2022-07-29T03:58:11;2.28;;;2.10;;
11651;SDS011;5882;48.818;9.114;2022-07-29T04:00:38;2.20;;;2.00;;
11651;SDS011;5882;48.818;9.114;2022-07-29T04:03:07;2.25;;;2.05;;
11651;SDS011;5882;48.818;9.114;2022-07-29T04:05:34;2.05;;;1.95;;
11651;SDS011;5882;48.818;9.114;2022-07-29T04:08:01;1.88;;;1.77;;
11651;SDS011;5882;48.818;9.114;2022-07-29T04:10:27;2.15;;;1.95;;
11651;SDS011;5882;48.818;9.114;2022-07-29T04:12:54;2.65;;;2.45;;
11651;SDS011;5882;48.818;9.114;2022-07-29T04:15:20;2.20;;;2.08;;
11651;SDS011;5882;48.818;9.114;2022-07-29T04:17:47;2.50;;;2.30;;
11651;SDS011;5882;48.818;9.114;2022-07-29T04:20:15;2.58;;;2.38;;
11651;SDS011;5882;48.818;9.114;2022-07-29T04:22:41;2.75;;;2.42;;
11651;SDS011;5882;48.818;9.114;2022-07-29T04:25:22;3.03;;;2.20;;
11651;SDS011;5882;48.818;9.114;2022-07-29T04:27:48;2.30;;;2.20;;
11651;SDS011;5882;48.818;9.114;2022-07-29T04:30:29;2.25;;;2.15;;
11651;SDS011;5882;48.818;9.114;2022-07-29T04:32:56;2.60;;;2.40;;
11651;SDS011;5882;48.818;9.114;2022-07-29T04:35:27;2.50;;;2.30;;
11651;SDS011;5882;48.818;9.114;2022-07-29T04:37:53;2.50;;;2.30;;
11651;SDS011;5882;48.818;9.114;2022-07-29T04:40:20;2.47;;;2.30;;
11651;SDS011;5882;48.818;9.114;2022-07-29T04:42:46;2.22;;;2.08;;
11651;SDS011;5882;48.818;9.114;2022-07-29T04:45:13;2.20;;;2.10;;
11651;SDS011;5882;48.818;9.114;2022-07-29T04:47:40;3.75;;;2.50;;
11651;SDS011;5882;48.818;9.114;2022-07-29T04:50:07;2.63;;;2.22;;
11651;SDS011;5882;48.818;9.114;2022-07-29T04:52:35;2.22;;;2.05;;
11651;SDS011;5882;48.818;9.114;2022-07-29T04:55:05;2.42;;;2.22;;
11651;SDS011;5882;48.818;9.114;2022-07-29T04:57:32;1.77;;;1.67;;
11651;SDS011;5882;48.818;9.114;2022-07-29T04:59:58;2.15;;;2.00;;
11651;SDS011;5882;48.818;9.114;2022-07-29T05:02:25;2.15;;;2.05;;
11651;SDS011;5882;48.818;9.114;2022-07-29T05:04:51;1.70;;;1.60;;
11651;SDS011;5882;48.818;9.114;2022-07-29T05:07:18;2.30;;;2.10;;
11651;SDS011;5882;48.818;9.114;2022-07-29T05:09:46;3.00;;;2.17;;
11651;SDS011;5882;48.818;9.114;2022-07-29T05:12:12;1.88;;;1.77;;
11651;SDS011;5882;48.818;9.114;2022-07-29T05:14:44;2.17;;;1.98;;
11651;SDS011;5882;48.818;9.114;2022-07-29T05:17:11;2.00;;;1.90;;
11651;SDS011;5882;48.818;9.114;2022-07-29T05:19:38;2.35;;;2.10;;
11651;SDS011;5882;48.818;9.114;2022-07-29T05:22:04;2.20;;;2.00;;
11651;SDS011;5882;48.818;9.114;2022-07-29T05:24:31;1.90;;;1.80;;
11651;SDS011;5882;48.818;9.114;2022-07-29T05:26:59;2.13;;;1.92;;
11651;SDS011;5882;48.818;9.114;2022-07-29T05:29:25;2.10;;;2.00;;
11651;SDS011;5882;48.818;9.114;2022-07-29T05:31:52;1.80;;;1.70;;
11651;SDS011;5882;48.818;9.114;2022-07-29T05:34:18;1.88;;;1.77;;
11651;SDS011;5882;48.818;9.114;2022-07-29T05:36:45;1.95;;;1.85;;
11651;SDS011;5882;48.818;9.114;2022-07-29T05:39:12;2.15;;;1.88;;
11651;SDS011;5882;48.818;9.114;2022-07-29T05:41:39;1.98;;;1.88;;
11651;SDS011;5882;48.818;9.114;2022-07-29T05:44:07;2.00;;;1.90;;
11651;SDS011;5882;48.818;9.114;2022-07-29T05:46:33;1.90;;;1.80;;
11651;SDS011;5882;48.818;9.114;2022-07-29T05:49:00;2.15;;;1.95;;
11651;SDS011;5882;48.818;9.114;2022-07-29T05:51:27;2.20;;;2.00;;
11651;SDS011;5882;48.818;9.114;2022-07-29T05:53:54;2.10;;;2.00;;
11651;SDS011;5882;48.818;9.114;2022-07-29T05:56:21;1.95;;;1.85;;
11651;SDS011;5882;48.818;9.114;2022-07-29T05:58:48;2.33;;;2.00;;
11651;SDS011;5882;48.818;9.114;2022-07-29T06:01:16;2.10;;;2.00;;
11651;SDS011;5882;48.818;9.114;2022-07-29T06:03:42;2.33;;;1.90;;
11651;SDS011;5882;48.818;9.114;2022-07-29T06:06:09;2.08;;;1.98;;
11651;SDS011;5882;48.818;9.114;2022-07-29T06:08:35;2.25;;;2.13;;
11651;SDS011;5882;48.818;9.114;2022-07-29T06:11:02;2.25;;;2.10;;
11651;SDS011;5882;48.818;9.114;2022-07-29T06:13:29;2.60;;;2.40;;
11651;SDS011;5882;48.818;9.114;2022-07-29T06:15:56;2.28;;;2.10;;
11651;SDS011;5882;48.818;9.114;2022-07-29T06:18:24;2.35;;;2.15;;
11651;SDS011;5882;48.818;9.114;2022-07-29T06:20:50;2.08;;;1.98;;
11651;SDS011;5882;48.818;9.114;2022-07-29T06:23:17;2.55;;;2.35;;
11651;SDS011;5882;48.818;9.114;2022-07-29T06:25:43;2.28;;;2.08;;
11651;SDS011;5882;48.818;9.114;2022-07-29T06:28:10;2.33;;;2.13;;
11651;SDS011;5882;48.818;9.114;2022-07-29T06:30:37;2.30;;;2.10;;
11651;SDS011;5882;48.818;9.114;2022-07-29T06:33:03;2.22;;;2.03;;
11651;SDS011;5882;48.818;9.114;2022-07-29T06:35:32;2.83;;;2.17;;
11651;SDS011;5882;48.818;9.114;2022-07-29T06:38:00;2.30;;;2.20;;
11651;SDS011;5882;48.818;9.114;2022-07-29T06:40:26;2.55;;;2.25;;
11651;SDS011;5882;48.818;9.114;2022-07-29T06:43:10;2.50;;;2.30;;
11651;SDS011;5882;48.818;9.114;2022-07-29T06:45:40;3.92;;;2.00;;
11651;SDS011;5882;48.818;9.114;2022-07-29T06:48:08;2.40;;;2.20;;
11651;SDS011;5882;48.818;9.114;2022-07-29T06:50:36;2.42;;;2.20;;
11651;SDS011;5882;48.818;9.114;2022-07-29T06:53:04;2.20;;;2.03;;
11651;SDS011;5882;48.818;9.114;2022-07-29T06:55:31;2.40;;;2.20;;
11651;SDS011;5882;48.818;9.114;2022-07-29T06:57:58;2.72;;;2.53;;
11651;SDS011;5882;48.818;9.114;2022-07-29T07:00:24;2.55;;;2.35;;
11651;SDS011;5882;48.818;9.114;2022-07-29T07:02:51;2.17;;;2.08;;
11651;SDS011;5882;48.818;9.114;2022-07-29T07:05:18;2.58;;;2.38;;
11651;SDS011;5882;48.818;9.114;2022-07-29T07:07:46;2.28;;;2.17;;
11651;SDS011;5882;48.818;9.114;2022-07-29T07:10:13;2.65;;;2.45;;
11651;SDS011;5882;48.818;9.114;2022-07-29T07:12:40;2.67;;;2.47;;
11651;SDS011;5882;48.818;9.114;2022-07-29T07:15:06;2.95;;;2.75;;
11651;SDS011;5882;48.818;9.114;2022-07-29T07:17:33;2.47;;;2.38;;
11651;SDS011;5882;48.818;9.114;2022-07-29T07:20:00;2.88;;;2.53;;
11651;SDS011;5882;48.818;9.114;2022-07-29T07:22:27;2.40;;;2.25;;
11651;SDS011;5882;48.818;9.114;2022-07-29T07:24:55;3.15;;;2.85;;
11651;SDS011;5882;48.818;9.114;2022-07-29T07:27:22;2.83;;;2.60;;
11651;SDS011;5882;48.818;9.114;2022-07-29T07:29:49;2.95;;;2.75;;
11651;SDS011;5882;48.818;9.114;2022-07-29T07:32:15;2.85;;;2.65;;
11651;SDS011;5882;48.818;9.114;2022-07-29T07:34:42;2.85;;;2.65;;
11651;SDS011;5882;48.818;9.114;2022-07-29T07:37:11;3.03;;;2.83;;
11651;SDS011;5882;48.818;9.114;2022-07-29T07:39:41;3.97;;;2.88;;
11651;SDS011;5882;48.818;9.114;2022-07-29T07:42:09;2.90;;;2.70;;
11651;SDS011;5882;48.818;9.114;2022-07-29T07:44:41;2.70;;;2.50;;
11651;SDS011;5882;48.818;9.114;2022-07-29T07:47:07;3.20;;;2.90;;
11651;SDS011;5882;48.818;9.114;2022-07-29T07:49:34;2.85;;;2.65;;
11651;SDS011;5882;48.818;9.114;2022-07-29T07:52:01;2.53;;;2.33;;
11651;SDS011;5882;48.818;9.114;2022-07-29T07:54:27;3.75;;;2.90;;
11651;SDS011;5882;48.818;9.114;2022-07-29T07:56:54;2.80;;;2.60;;
11651;SDS011;5882;48.818;9.114;2022-07-29T07:59:25;3.55;;;3.25;;
11651;SDS011;5882;48.818;9.114;2022-07-29T08:01:52;3.47;;;3.28;;
11651;SDS011;5882;48.818;9.114;2022-07-29T08:04:18;3.42;;;3.13;;
11651;SDS011;5882;48.818;9.114;2022-07-29T08:06:45;2.95;;;2.75;;
11651;SDS011;5882;48.818;9.114;2022-07-29T08:09:14;2.80;;;2.60;;
11651;SDS011;5882;48.818;9.114;2022-07-29T08:11:41;2.80;;;2.60;;
11651;SDS011;5882;48.818;9.114;2022-07-29T08:14:08;2.67;;;2.47;;
11651;SDS011;5882;48.818;9.114;2022-07-29T08:16:36;3.13;;;2.92;;
11651;SDS011;5882;48.818;9.114;2022-07-29T08:19:03;2.88;;;2.67;;
11651;SDS011;5882;48.818;9.114;2022-07-29T08:24:18;3.15;;;2.95;;
11651;SDS011;5882;48.818;9.114;2022-07-29T08:27:02;2.45;;;2.35;;
11651;SDS011;5882;48.818;9.114;2022-07-29T08:29:30;2.63;;;2.42;;
11651;SDS011;5882;48.818;9.114;2022-07-29T08:32:01;2.53;;;2.30;;
11651;SDS011;5882;48.818;9.114;2022-07-29T08:34:35;2.92;;;2.72;;
11651;SDS011;5882;48.818;9.114;2022-07-29T08:37:02;3.13;;;2.78;;
11651;SDS011;5882;48.818;9.114;2022-07-29T08:39:32;2.78;;;2.58;;
11651;SDS011;5882;48.818;9.114;2022-07-29T08:41:59;2.85;;;2.58;;
11651;SDS011;5882;48.818;9.114;2022-07-29T08:44:26;3.05;;;2.85;;
11651;SDS011;5882;48.818;9.114;2022-07-29T08:46:55;3.03;;;2.83;;
11651;SDS011;5882;48.818;9.114;2022-07-29T08:49:24;3.03;;;2.80;;
11651;SDS011;5882;48.818;9.114;2022-07-29T08:51:50;5.85;;;3.30;;
11651;SDS011;5882;48.818;9.114;2022-07-29T08:54:18;2.88;;;2.67;;
11651;SDS011;5882;48.818;9.114;2022-07-29T08:56:50;2.95;;;2.72;;
11651;SDS011;5882;48.818;9.114;2022-07-29T08:59:17;3.13;;;2.92;;
11651;SDS011;5882;48.818;9.114;2022-07-29T09:01:45;3.15;;;2.80;;
11651;SDS011;5882;48.818;9.114;2022-07-29T09:04:13;3.20;;;2.97;;
11651;SDS011;5882;48.818;9.114;2022-07-29T09:06:43;3.20;;;3.00;;
11651;SDS011;5882;48.818;9.114;2022-07-29T09:09:10;3.05;;;2.85;;
11651;SDS011;5882;48.818;9.114;2022-07-29T09:11:39;3.10;;;2.90;;
11651;SDS011;5882;48.818;9.114;2022-07-29T09:14:06;2.92;;;2.72;;
11651;SDS011;5882;48.818;9.114;2022-07-29T09:19:21;3.28;;;2.97;;
11651;SDS011;5882;48.818;9.114;2022-07-29T09:21:49;4.95;;;3.10;;
11651;SDS011;5882;48.818;9.114;2022-07-29T09:24:24;3.35;;;3.08;;
11651;SDS011;5882;48.818;9.114;2022-07-29T09:26:51;2.92;;;2.72;;
11651;SDS011;5882;48.818;9.114;2022-07-29T09:29:18;2.88;;;2.67;;
11651;SDS011;5882;48.818;9.114;2022-07-29T09:31:46;3.35;;;2.67;;
11651;SDS011;5882;48.818;9.114;2022-07-29T09:34:13;3.55;;;3.25;;
11651;SDS011;5882;48.818;9.114;2022-07-29T09:36:40;3.47;;;3.28;;
11651;SDS011;5882;48.818;9.114;2022-07-29T09:39:07;3.10;;;2.90;;
11651;SDS011;5882;48.818;9.114;2022-07-29T09:41:44;3.30;;;3.00;;
11651;SDS011;5882;48.818;9.114;2022-07-29T09:44:11;3.65;;;3.35;;
11651;SDS011;5882;48.818;9.114;2022-07-29T09:46:37;3.20;;;3.00;;
11651;SDS011;5882;48.818;9.114;2022-07-29T09:49:07;3.25;;;3.00;;
11651;SDS011;5882;48.818;9.114;2022-07-29T09:51:34;3.78;;;3.22;;
11651;SDS011;5882;48.818;9.114;2022-07-29T09:54:00;3.25;;;3.05;;
11651;SDS011;5882;48.818;9.114;2022-07-29T09:56:39;4.28;;;3.30;;
11651;SDS011;5882;48.818;9.114;2022-07-29T09:59:07;3.72;;;3.42;;
11651;SDS011;5882;48.818;9.114;2022-07-29T10:01:36;3.63;;;3.35;;
11651;SDS011;5882;48.818;9.114;2022-07-29T10:04:03;3.67;;;3.20;;
11651;SDS011;5882;48.818;9.114;2022-07-29T10:06:29;2.95;;;2.75;;
11651;SDS011;5882;48.818;9.114;2022-07-29T10:09:06;4.22;;;3.40;;
11651;SDS011;5882;48.818;9.114;2022-07-29T10:11:33;3.10;;;2.90;;
11651;SDS011;5882;48.818;9.114;2022-07-29T10:14:01;3.80;;;3.50;;
11651;SDS011;5882;48.818;9.114;2022-07-29T10:16:30;3.40;;;3.10;;
11651;SDS011;5882;48.818;9.114;2022-07-29T10:18:59;3.22;;;3.03;;
11651;SDS011;5882;48.818;9.114;2022-07-29T10:21:26;3.13;;;2.92;;
11651;SDS011;5882;48.818;9.114;2022-07-29T10:23:52;3.03;;;2.83;;
11651;SDS011;5882;48.818;9.114;2022-07-29T10:26:19;3.30;;;3.10;;
11651;SDS011;5882;48.818;9.114;2022-07-29T10:28:46;3.08;;;2.88;;
11651;SDS011;5882;48.818;9.114;2022-07-29T10:31:15;3.78;;;3.20;;
11651;SDS011;5882;48.818;9.114;2022-07-29T10:33:47;3.42;;;3.13;;
11651;SDS011;5882;48.818;9.114;2022-07-29T10:36:31;3.15;;;2.80;;
11651;SDS011;5882;48.818;9.114;2022-07-29T10:39:00;3.72;;;3.20;;
11651;SDS011;5882;48.818;9.114;2022-07-29T10:41:47;2.83;;;2.63;;
11651;SDS011;5882;48.818;9.114;2022-07-29T10:44:17;3.20;;;3.00;;
11651;SDS011;5882;48.818;9.114;2022-07-29T10:46:46;4.45;;;3.15;;
11651;SDS011;5882;48.818;9.114;2022-07-29T10:49:13;3.67;;;3.38;;
11651;SDS011;5882;48.818;9.114;2022-07-29T10:52:00;3.47;;;3.13;;
11651;SDS011;5882;48.818;9.114;2022-07-29T10:54:36;3.20;;;2.97;;
11651;SDS011;5882;48.818;9.114;2022-07-29T10:57:10;2.83;;;2.63;;
11651;SDS011;5882;48.818;9.114;2022-07-29T10:59:37;2.90;;;2.67;;
11651;SDS011;5882;48.818;9.114;2022-07-29T11:02:10;3.42;;;3.13;;
11651;SDS011;5882;48.818;9.114;2022-07-29T11:05:00;3.88;;;3.05;;
11651;SDS011;5882;48.818;9.114;2022-07-29T11:07:28;3.17;;;2.88;;
11651;SDS011;5882;48.818;9.114;2022-07-29T11:12:46;3.40;;;3.10;;
11651;SDS011;5882;48.818;9.114;2022-07-29T11:15:13;3.00;;;2.80;;
11651;SDS011;5882;48.818;9.114;2022-07-29T11:20:34;3.40;;;3.10;;
11651;SDS011;5882;48.818;9.114;2022-07-29T11:23:17;3.13;;;2.92;;
11651;SDS011;5882;48.818;9.114;2022-07-29T11:25:44;3.20;;;3.00;;
11651;SDS011;5882;48.818;9.114;2022-07-29T11:28:12;3.63;;;3.30;;
11651;SDS011;5882;48.818;9.114;2022-07-29T11:30:49;3.50;;;3.20;;
11651;SDS011;5882;48.818;9.114;2022-07-29T11:36:11;3.40;;;3.10;;
11651;SDS011;5882;48.818;9.114;2022-07-29T11:38:38;3.70;;;3.40;;
11651;SDS011;5882;48.818;9.114;2022-07-29T11:41:20;2.97;;;2.70;;
11651;SDS011;5882;48.818;9.114;2022-07-29T11:43:48;3.13;;;2.90;;
11651;SDS011;5882;48.818;9.114;2022-07-29T11:46:16;3.75;;;3.45;;
11651;SDS011;5882;48.818;9.114;2022-07-29T11:48:43;2.80;;;2.60;;
11651;SDS011;5882;48.818;9.114;2022-07-29T11:51:12;3.10;;;2.78;;
11651;SDS011;5882;48.818;9.114;2022-07-29T11:53:38;3.00;;;2.78;;
11651;SDS011;5882;48.818;9.114;2022-07-29T11:56:06;2.60;;;2.47;;
11651;SDS011;5882;48.818;9.114;2022-07-29T11:58:34;3.17;;;2.97;;
11651;SDS011;5882;48.818;9.114;2022-07-29T12:01:02;3.03;;;2.83;;
11651;SDS011;5882;48.818;9.114;2022-07-29T12:03:29;3.40;;;2.85;;
11651;SDS011;5882;48.818;9.114;2022-07-29T12:05:56;3.20;;;2.90;;
11651;SDS011;5882;48.818;9.114;2022-07-29T12:08:24;3.20;;;2.90;;
11651;SDS011;5882;48.818;9.114;2022-07-29T12:10:51;2.75;;;2.55;;
11651;SDS011;5882;48.818;9.114;2022-07-29T12:13:18;3.25;;;2.95;;
11651;SDS011;5882;48.818;9.114;2022-07-29T12:15:51;3.10;;;2.90;;
11651;SDS011;5882;48.818;9.114;2022-07-29T12:18:18;2.70;;;2.45;;
11651;SDS011;5882;48.818;9.114;2022-07-29T12:20:46;3.00;;;2.80;;
11651;SDS011;5882;48.818;9.114;2022-07-29T12:23:13;3.38;;;3.03;;
11651;SDS011;5882;48.818;9.114;2022-07-29T12:25:43;3.67;;;3.15;;
11651;SDS011;5882;48.818;9.114;2022-07-29T12:28:10;3.38;;;2.90;;
11651;SDS011;5882;48.818;9.114;2022-07-29T12:30:41;3.30;;;2.85;;
11651;SDS011;5882;48.818;9.114;2022-07-29T12:35:53;3.10;;;2.90;;
11651;SDS011;5882;48.818;9.114;2022-07-29T12:38:20;3.15;;;2.85;;
11651;SDS011;5882;48.818;9.114;2022-07-29T12:40:48;3.03;;;2.83;;
11651;SDS011;5882;48.818;9.114;2022-07-29T12:43:16;3.88;;;3.00;;
11651;SDS011;5882;48.818;9.114;2022-07-29T12:45:44;3.55;;;3.25;;
11651;SDS011;5882;48.818;9.114;2022-07-29T12:48:11;3.13;;;2.92;;
11651;SDS011;5882;48.818;9.114;2022-07-29T12:50:53;3.72;;;3.33;;
11651;SDS011;5882;48.818;9.114;2022-07-29T12:53:20;3.20;;;2.90;;
11651;SDS011;5882;48.818;9.114;2022-07-29T12:55:49;3.42;;;3.13;;
11651;SDS011;5882;48.818;9.114;2022-07-29T12:58:26;2.90;;;2.70;;
11651;SDS011;5882;48.818;9.114;2022-07-29T13:01:00;3.40;;;3.10;;
11651;SDS011;5882;48.818;9.114;2022-07-29T13:03:27;3.22;;;2.92;;
11651;SDS011;5882;48.818;9.114;2022-07-29T13:05:54;3.67;;;2.72;;
11651;SDS011;5882;48.818;9.114;2022-07-29T13:08:20;4.40;;;2.70;;
11651;SDS011;5882;48.818;9.114;2022-07-29T13:10:48;2.95;;;2.65;;
11651;SDS011;5882;48.818;9.114;2022-07-29T13:13:15;3.00;;;2.80;;
11651;SDS011;5882;48.818;9.114;2022-07-29T13:15:42;2.85;;;2.65;;
11651;SDS011;5882;48.818;9.114;2022-07-29T13:20:50;2.80;;;2.60;;
11651;SDS011;5882;48.818;9.114;2022-07-29T13:23:17;2.50;;;2.30;;
11651;SDS011;5882;48.818;9.114;2022-07-29T13:25:43;2.65;;;2.45;;
11651;SDS011;5882;48.818;9.114;2022-07-29T13:28:11;2.30;;;2.20;;
11651;SDS011;5882;48.818;9.114;2022-07-29T13:30:39;3.05;;;2.35;;
11651;SDS011;5882;48.818;9.114;2022-07-29T13:33:06;2.75;;;2.40;;
11651;SDS011;5882;48.818;9.114;2022-07-29T13:35:33;2.50;;;2.30;;
11651;SDS011;5882;48.818;9.114;2022-07-29T13:38:00;4.38;;;2.72;;
11651;SDS011;5882;48.818;9.114;2022-07-29T13:40:26;2.78;;;2.58;;
11651;SDS011;5882;48.818;9.114;2022-07-29T13:42:54;2.67;;;2.47;;
11651;SDS011;5882;48.818;9.114;2022-07-29T13:45:22;3.10;;;2.47;;
11651;SDS011;5882;48.818;9.114;2022-07-29T13:47:48;2.58;;;2.38;;
11651;SDS011;5882;48.818;9.114;2022-07-29T13:50:15;2.35;;;2.25;;
11651;SDS011;5882;48.818;9.114;2022-07-29T13:52:42;2.67;;;2.47;;
11651;SDS011;5882;48.818;9.114;2022-07-29T13:55:08;2.60;;;2.40;;
11651;SDS011;5882;48.818;9.114;2022-07-29T13:57:35;2.92;;;2.72;;
11651;SDS011;5882;48.818;9.114;2022-07-29T14:00:01;2.70;;;2.55;;
11651;SDS011;5882;48.818;9.114;2022-07-29T14:02:29;3.00;;;2.80;;
11651;SDS011;5882;48.818;9.114;2022-07-29T14:04:56;2.88;;;2.67;;
11651;SDS011;5882;48.818;9.114;2022-07-29T14:07:22;3.00;;;2.80;;
11651;SDS011;5882;48.818;9.114;2022-07-29T14:09:49;2.65;;;2.45;;
11651;SDS011;5882;48.818;9.114;2022-07-29T14:12:16;2.65;;;2.45;;
11651;SDS011;5882;48.818;9.114;2022-07-29T14:14:42;2.45;;;2.35;;
11651;SDS011;5882;48.818;9.114;2022-07-29T14:17:09;2.83;;;2.63;;
11651;SDS011;5882;48.818;9.114;2022-07-29T14:19:37;3.08;;;2.88;;
11651;SDS011;5882;48.818;9.114;2022-07-29T14:22:04;2.60;;;2.42;;
11651;SDS011;5882;48.818;9.114;2022-07-29T14:27:18;2.72;;;2.53;;
11651;SDS011;5882;48.818;9.114;2022-07-29T14:29:44;2.63;;;2.42;;
11651;SDS011;5882;48.818;9.114;2022-07-29T14:32:11;2.65;;;2.45;;
11651;SDS011;5882;48.818;9.114;2022-07-29T14:37:36;2.67;;;2.47;;
11651;SDS011;5882;48.818;9.114;2022-07-29T14:40:03;2.42;;;2.20;;
11651;SDS011;5882;48.818;9.114;2022-07-29T14:42:29;2.35;;;2.20;;
11651;SDS011;5882;48.818;9.114;2022-07-29T14:44:56;2.47;;;2.28;;
11651;SDS011;5882;48.818;9.114;2022-07-29T14:47:32;2.33;;;2.22;;
11651;SDS011;5882;48.818;9.114;2022-07-29T14:50:02;2.38;;;2.20;;
11651;SDS011;5882;48.818;9.114;2022-07-29T14:52:29;3.10;;;2.50;;
11651;SDS011;5882;48.818;9.114;2022-07-29T14:54:58;2.72;;;2.58;;
11651;SDS011;5882;48.818;9.114;2022-07-29T14:57:24;2.60;;;2.40;;
11651;SDS011;5882;48.818;9.114;2022-07-29T14:59:51;2.40;;;2.20;;
11651;SDS011;5882;48.818;9.114;2022-07-29T15:02:17;2.10;;;2.00;;
11651;SDS011;5882;48.818;9.114;2022-07-29T15:04:44;2.38;;;2.28;;
11651;SDS011;5882;48.818;9.114;2022-07-29T15:07:11;3.92;;;2.20;;
11651;SDS011;5882;48.818;9.114;2022-07-29T15:09:37;2.50;;;2.30;;
11651;SDS011;5882;48.818;9.114;2022-07-29T15:12:05;2.50;;;2.30;;
11651;SDS011;5882;48.818;9.114;2022-07-29T15:14:33;2.78;;;2.55;;
11651;SDS011;5882;48.818;9.114;2022-07-29T15:16:59;2.88;;;2.67;;
11651;SDS011;5882;48.818;9.114;2022-07-29T15:19:26;2.88;;;2.67;;
11651;SDS011;5882;48.818;9.114;2022-07-29T15:21:52;2.30;;;2.20;;
11651;SDS011;5882;48.818;9.114;2022-07-29T15:24:19;2.50;;;2.30;;
11651;SDS011;5882;48.818;9.114;2022-07-29T15:26:46;2.42;;;2.22;;
11651;SDS011;5882;48.818;9.114;2022-07-29T15:29:14;2.33;;;2.22;;
11651;SDS011;5882;48.818;9.114;2022-07-29T15:31:40;2.50;;;2.30;;